createdAt,value
2022-08-27T00:01:55.357Z,81.44
2022-08-27T00:04:21.934Z,81.45
2022-08-27T00:06:48.434Z,81.38
2022-08-27T00:09:14.943Z,81.33
2022-08-27T00:11:42.263Z,81.30
2022-08-27T00:14:08.726Z,81.43
2022-08-27T00:16:35.245Z,81.20
2022-08-27T00:19:01.761Z,81.27
2022-08-27T00:21:28.186Z,81.40
2022-08-27T00:23:54.637Z,81.28
2022-08-27T00:26:21.085Z,81.28
2022-08-27T00:28:47.954Z,81.32
2022-08-27T00:31:14.673Z,81.24
2022-08-27T00:33:41.244Z,81.37
2022-08-27T00:36:08.026Z,81.39
2022-08-27T00:38:35.094Z,81.45
2022-08-27T00:41:01.535Z,81.28
2022-08-27T00:43:31.781Z,81.23
2022-08-27T00:46:03.513Z,81.25
2022-08-27T00:48:32.058Z,81.35
2022-08-27T00:50:58.497Z,81.29
2022-08-27T00:53:26.852Z,81.30
2022-08-27T00:55:58.621Z,81.26
2022-08-27T00:58:27.829Z,81.19
2022-08-27T01:00:54.367Z,81.18
2022-08-27T01:03:21.181Z,81.26
2022-08-27T01:05:49.111Z,81.36
2022-08-27T01:08:18.462Z,81.45
2022-08-27T01:10:45.432Z,81.28
2022-08-27T01:13:14.029Z,81.44
2022-08-27T01:15:41.502Z,81.32
2022-08-27T01:18:08.784Z,81.40
2022-08-27T01:20:42.995Z,81.22
2022-08-27T01:23:22.186Z,81.33
2022-08-27T01:25:48.770Z,81.30
2022-08-27T01:28:16.448Z,81.45
2022-08-27T01:30:42.919Z,81.50
2022-08-27T01:33:17.992Z,81.43
2022-08-27T01:35:45.167Z,81.74
2022-08-27T01:38:15.349Z,81.65
2022-08-27T01:40:56.534Z,81.63
2022-08-27T01:43:23.625Z,81.51
2022-08-27T01:45:51.353Z,81.66
2022-08-27T01:48:19.714Z,81.64
2022-08-27T01:50:48.287Z,81.56
2022-08-27T01:53:16.742Z,81.79
2022-08-27T01:55:48.209Z,81.69
2022-08-27T01:58:15.623Z,81.82
2022-08-27T02:00:44.178Z,81.71
2022-08-27T02:03:12.234Z,81.82
2022-08-27T02:05:44.807Z,81.78
2022-08-27T02:08:11.916Z,81.96
2022-08-27T02:10:39.751Z,81.89
2022-08-27T02:13:07.166Z,81.91
2022-08-27T02:15:34.575Z,81.97
2022-08-27T02:18:01.756Z,81.89
2022-08-27T02:20:29.283Z,81.96
2022-08-27T02:22:56.026Z,82.07
2022-08-27T02:25:22.627Z,81.80
2022-08-27T02:27:50.335Z,81.94
2022-08-27T02:30:19.773Z,81.64
2022-08-27T02:32:47.313Z,81.60
2022-08-27T02:35:14.805Z,81.52
2022-08-27T02:37:41.881Z,81.40
2022-08-27T02:40:09.614Z,81.23
2022-08-27T02:42:36.117Z,81.17
2022-08-27T02:45:02.882Z,81.17
2022-08-27T02:47:29.330Z,80.98
2022-08-27T02:49:55.854Z,81.09
2022-08-27T02:52:25.101Z,81.01
2022-08-27T02:54:51.802Z,81.08
2022-08-27T02:57:18.266Z,81.14
2022-08-27T02:59:45.238Z,81.09
2022-08-27T03:02:11.897Z,81.04
2022-08-27T03:04:38.495Z,80.97
2022-08-27T03:07:04.952Z,80.94
2022-08-27T03:09:31.419Z,80.95
2022-08-27T03:11:58.335Z,80.89
2022-08-27T03:14:24.725Z,81.12
2022-08-27T03:16:51.190Z,81.02
2022-08-27T03:19:23.796Z,81.25
2022-08-27T03:21:54.559Z,81.09
2022-08-27T03:24:21.359Z,81.06
2022-08-27T03:26:52.933Z,81.09
2022-08-27T03:29:20.749Z,81.09
2022-08-27T03:31:47.233Z,81.03
2022-08-27T03:34:13.780Z,81.14
2022-08-27T03:36:46.877Z,81.25
2022-08-27T03:39:13.613Z,81.27
2022-08-27T03:41:54.093Z,81.25
2022-08-27T03:44:22.154Z,81.26
2022-08-27T03:46:48.981Z,81.23
2022-08-27T03:49:15.477Z,81.33
2022-08-27T03:51:46.943Z,81.31
2022-08-27T03:54:13.440Z,81.26
2022-08-27T03:56:41.623Z,81.34
2022-08-27T03:59:08.331Z,81.22
2022-08-27T04:01:34.973Z,81.35
2022-08-27T04:04:01.446Z,81.47
2022-08-27T04:06:28.347Z,81.30
2022-08-27T04:08:54.801Z,81.43
2022-08-27T04:11:22.203Z,81.40
2022-08-27T04:13:48.755Z,81.35
2022-08-27T04:16:15.389Z,81.48
2022-08-27T04:18:41.886Z,81.36
2022-08-27T04:21:09.290Z,81.40
2022-08-27T04:23:35.678Z,81.54
2022-08-27T04:26:05.347Z,81.48
2022-08-27T04:28:35.251Z,81.43
2022-08-27T04:31:05.171Z,81.39
2022-08-27T04:33:32.534Z,81.57
2022-08-27T04:36:00.075Z,81.54
2022-08-27T04:38:26.640Z,81.46
2022-08-27T04:41:11.490Z,81.61
2022-08-27T04:43:38.066Z,81.61
2022-08-27T04:46:04.695Z,81.68
2022-08-27T04:48:31.221Z,81.64
2022-08-27T04:50:57.759Z,81.75
2022-08-27T04:53:24.293Z,81.74
2022-08-27T04:55:52.778Z,81.81
2022-08-27T04:58:21.003Z,81.74
2022-08-27T05:00:48.977Z,81.92
2022-08-27T05:03:16.597Z,81.59
2022-08-27T05:05:43.656Z,81.87
2022-08-27T05:08:13.221Z,81.73
2022-08-27T05:10:43.941Z,81.74
2022-08-27T05:13:10.633Z,81.89
2022-08-27T05:15:37.241Z,81.83
2022-08-27T05:18:04.384Z,81.94
2022-08-27T05:20:31.405Z,81.87
2022-08-27T05:22:57.867Z,81.73
2022-08-27T05:25:25.000Z,81.81
2022-08-27T05:27:51.471Z,81.92
2022-08-27T05:30:18.383Z,81.85
2022-08-27T05:32:45.022Z,81.88
2022-08-27T05:35:15.155Z,81.84
2022-08-27T05:37:42.919Z,81.93
2022-08-27T05:40:09.837Z,81.97
2022-08-27T05:42:36.359Z,82.02
2022-08-27T05:45:02.827Z,82.13
2022-08-27T05:47:29.366Z,82.01
2022-08-27T05:49:55.874Z,82.23
2022-08-27T05:52:22.393Z,82.24
2022-08-27T05:54:48.951Z,82.20
2022-08-27T05:57:15.457Z,82.15
2022-08-27T06:00:00.380Z,82.18
2022-08-27T06:02:27.154Z,82.21
2022-08-27T06:04:53.938Z,82.20
2022-08-27T06:07:20.779Z,82.28
2022-08-27T06:09:47.316Z,82.37
2022-08-27T06:12:13.771Z,82.29
2022-08-27T06:14:40.554Z,82.34
2022-08-27T06:17:07.015Z,82.37
2022-08-27T06:19:34.889Z,82.31
2022-08-27T06:22:10.508Z,82.41
2022-08-27T06:24:39.435Z,82.21
2022-08-27T06:27:06.158Z,82.46
2022-08-27T06:29:35.267Z,82.19
2022-08-27T06:32:01.935Z,82.16
2022-08-27T06:34:28.423Z,82.17
2022-08-27T06:36:55.115Z,82.25
2022-08-27T06:39:21.684Z,82.40
2022-08-27T06:41:50.319Z,82.42
2022-08-27T06:44:16.779Z,82.38
2022-08-27T06:46:43.526Z,82.33
2022-08-27T06:49:10.639Z,82.39
2022-08-27T06:51:38.271Z,82.33
2022-08-27T06:54:08.133Z,82.48
2022-08-27T06:56:34.928Z,82.30
2022-08-27T06:59:04.017Z,82.41
2022-08-27T07:01:33.997Z,82.33
2022-08-27T07:04:02.210Z,82.56
2022-08-27T07:06:29.658Z,82.56
2022-08-27T07:08:57.230Z,82.51
2022-08-27T07:11:23.876Z,82.52
2022-08-27T07:13:50.646Z,82.43
2022-08-27T07:16:19.216Z,82.64
2022-08-27T07:18:49.204Z,82.51
2022-08-27T07:21:15.589Z,82.76
2022-08-27T07:23:42.320Z,82.65
2022-08-27T07:26:12.611Z,82.74
2022-08-27T07:28:39.950Z,82.82
2022-08-27T07:31:09.166Z,82.24
2022-08-27T07:33:39.515Z,83.17
2022-08-27T07:36:09.055Z,82.82
2022-08-27T07:38:36.615Z,82.89
2022-08-27T07:41:06.842Z,83.55
2022-08-27T07:43:51.875Z,83.50
2022-08-27T07:46:23.733Z,83.40
2022-08-27T07:48:50.659Z,83.24
2022-08-27T07:51:18.498Z,83.45
2022-08-27T07:53:46.045Z,83.52
2022-08-27T07:56:13.204Z,83.60
2022-08-27T07:58:40.252Z,83.49
2022-08-27T08:01:07.310Z,83.31
2022-08-27T08:03:33.873Z,83.15
2022-08-27T08:06:11.495Z,83.07
2022-08-27T08:08:40.978Z,83.22
2022-08-27T08:11:11.499Z,82.67
2022-08-27T08:13:37.979Z,82.96
2022-08-27T08:16:05.186Z,82.88
2022-08-27T08:18:32.356Z,83.13
2022-08-27T08:21:00.080Z,82.86
2022-08-27T08:23:27.063Z,83.15
2022-08-27T08:25:55.289Z,83.13
2022-08-27T08:28:21.835Z,82.98
2022-08-27T08:30:48.416Z,82.97
2022-08-27T08:33:15.082Z,83.10
2022-08-27T08:35:41.608Z,83.12
2022-08-27T08:38:08.495Z,82.88
2022-08-27T08:40:55.465Z,83.13
2022-08-27T08:43:28.223Z,83.24
2022-08-27T08:45:56.397Z,83.02
2022-08-27T08:48:23.994Z,83.00
2022-08-27T08:50:50.459Z,82.85
2022-08-27T08:53:40.359Z,82.63
2022-08-27T08:56:17.923Z,82.45
2022-08-27T08:58:47.758Z,82.53
2022-08-27T09:01:15.948Z,82.74
2022-08-27T09:03:47.355Z,82.54
2022-08-27T09:06:26.683Z,82.48
2022-08-27T09:08:53.133Z,82.46
2022-08-27T09:11:35.338Z,82.42
2022-08-27T09:14:13.370Z,82.53
2022-08-27T09:16:40.165Z,82.65
2022-08-27T09:19:06.894Z,82.63
2022-08-27T09:21:49.546Z,82.79
2022-08-27T09:24:24.035Z,82.62
2022-08-27T09:26:51.151Z,82.59
2022-08-27T09:29:20.977Z,82.76
2022-08-27T09:31:58.111Z,82.82
2022-08-27T09:34:25.673Z,82.97
2022-08-27T09:36:54.373Z,83.11
2022-08-27T09:39:26.208Z,83.33
2022-08-27T09:41:52.768Z,83.11
2022-08-27T09:44:20.776Z,82.95
2022-08-27T09:46:54.462Z,83.19
2022-08-27T09:49:21.058Z,83.22
2022-08-27T09:51:48.048Z,83.23
2022-08-27T09:54:38.052Z,83.26
2022-08-27T09:57:05.272Z,83.84
2022-08-27T09:59:36.143Z,83.36
2022-08-27T10:02:06.600Z,83.66
2022-08-27T10:04:50.400Z,83.90
2022-08-27T10:07:24.185Z,83.53
2022-08-27T10:09:58.665Z,83.51
2022-08-27T10:12:29.318Z,83.80
2022-08-27T10:14:59.007Z,83.97
2022-08-27T10:17:40.790Z,83.94
2022-08-27T10:20:07.413Z,84.76
2022-08-27T10:22:52.782Z,84.32
2022-08-27T10:25:58.576Z,84.10
2022-08-27T10:28:34.477Z,84.41
2022-08-27T10:31:13.937Z,84.51
2022-08-27T10:33:50.598Z,84.20
2022-08-27T10:36:33.261Z,84.52
2022-08-27T10:38:59.976Z,84.64
2022-08-27T10:41:29.033Z,84.95
2022-08-27T10:44:13.643Z,84.92
2022-08-27T10:46:58.982Z,84.31
2022-08-27T10:49:31.347Z,85.13
2022-08-27T10:52:08.227Z,85.66
2022-08-27T10:54:46.285Z,84.67
2022-08-27T10:57:53.899Z,85.08
2022-08-27T11:00:20.544Z,84.97
2022-08-27T11:03:09.087Z,84.46
2022-08-27T11:05:45.004Z,84.79
2022-08-27T11:08:15.744Z,84.56
2022-08-27T11:10:45.832Z,85.51
2022-08-27T11:13:14.845Z,84.70
2022-08-27T11:15:44.134Z,84.21
2022-08-27T11:18:16.252Z,84.23
2022-08-27T11:20:51.006Z,83.93
2022-08-27T11:23:19.696Z,84.15
2022-08-27T11:25:53.876Z,83.84
2022-08-27T11:28:30.286Z,86.28
2022-08-27T11:31:16.134Z,86.05
2022-08-27T11:33:46.613Z,85.78
2022-08-27T11:36:16.301Z,85.59
2022-08-27T11:38:53.757Z,85.72
2022-08-27T11:41:45.113Z,84.98
2022-08-27T11:44:13.762Z,85.50
2022-08-27T11:46:49.124Z,85.99
2022-08-27T11:49:35.894Z,86.14
2022-08-27T11:52:04.665Z,86.54
2022-08-27T11:54:42.794Z,86.95
2022-08-27T11:57:14.491Z,86.08
2022-08-27T11:59:43.605Z,85.51
2022-08-27T12:02:12.471Z,86.28
2022-08-27T12:04:41.138Z,85.77
2022-08-27T12:07:13.948Z,86.72
2022-08-27T12:09:55.748Z,86.28
2022-08-27T12:12:30.296Z,85.13
2022-08-27T12:15:14.994Z,84.78
2022-08-27T12:17:46.452Z,84.59
2022-08-27T12:20:27.782Z,84.80
2022-08-27T12:23:26.052Z,84.91
2022-08-27T12:26:00.980Z,84.64
2022-08-27T12:28:28.065Z,84.72
2022-08-27T12:30:55.049Z,84.37
2022-08-27T12:33:21.828Z,84.33
2022-08-27T12:35:50.622Z,84.17
2022-08-27T12:38:23.707Z,84.23
2022-08-27T12:40:52.047Z,84.06
2022-08-27T12:43:26.501Z,84.01
2022-08-27T12:46:05.099Z,83.82
2022-08-27T12:48:34.378Z,83.87
2022-08-27T12:51:02.883Z,83.90
2022-08-27T12:53:43.642Z,83.83
2022-08-27T12:56:29.413Z,84.20
2022-08-27T12:58:55.853Z,84.57
2022-08-27T13:01:28.532Z,84.41
2022-08-27T13:03:57.806Z,83.75
2022-08-27T13:06:33.328Z,83.51
2022-08-27T13:09:01.398Z,83.46
2022-08-27T13:11:32.750Z,83.43
2022-08-27T13:14:16.561Z,83.33
2022-08-27T13:16:51.594Z,83.23
2022-08-27T13:19:25.341Z,83.51
2022-08-27T13:21:52.696Z,83.77
2022-08-27T13:24:21.058Z,83.56
2022-08-27T13:26:49.868Z,83.79
2022-08-27T13:29:16.503Z,84.33
2022-08-27T13:31:43.777Z,84.39
2022-08-27T13:34:14.891Z,85.03
2022-08-27T13:36:54.320Z,84.76
2022-08-27T13:39:20.983Z,84.54
2022-08-27T13:41:48.554Z,84.40
2022-08-27T13:44:19.426Z,84.04
2022-08-27T13:46:50.990Z,84.15
2022-08-27T13:49:22.053Z,83.87
2022-08-27T13:51:49.218Z,83.95
2022-08-27T13:54:17.455Z,84.16
2022-08-27T13:56:46.670Z,83.69
2022-08-27T13:59:19.677Z,83.54
2022-08-27T14:02:00.366Z,83.33
2022-08-27T14:04:47.149Z,83.14
2022-08-27T14:07:17.546Z,83.29
2022-08-27T14:09:53.939Z,83.28
2022-08-27T14:12:38.379Z,83.38
2022-08-27T14:15:20.799Z,82.89
2022-08-27T14:17:47.647Z,82.88
2022-08-27T14:20:15.935Z,82.97
2022-08-27T14:22:43.081Z,82.83
2022-08-27T14:25:09.935Z,82.73
2022-08-27T14:27:36.831Z,82.85
2022-08-27T14:30:04.770Z,83.35
2022-08-27T14:32:32.703Z,83.91
2022-08-27T14:34:59.322Z,84.02
2022-08-27T14:37:25.972Z,83.54
2022-08-27T14:39:52.512Z,83.43
2022-08-27T14:42:20.071Z,82.87
2022-08-27T14:44:46.705Z,83.01
2022-08-27T14:47:14.403Z,83.03
2022-08-27T14:49:43.986Z,83.04
2022-08-27T14:52:11.250Z,82.78
2022-08-27T14:54:38.649Z,82.73
2022-08-27T14:57:06.006Z,82.84
2022-08-27T14:59:32.871Z,82.63
2022-08-27T15:02:01.572Z,82.74
2022-08-27T15:04:28.934Z,82.58
2022-08-27T15:06:55.951Z,82.92
2022-08-27T15:09:22.488Z,82.87
2022-08-27T15:11:49.283Z,82.54
2022-08-27T15:14:20.915Z,82.43
2022-08-27T15:16:47.408Z,82.56
2022-08-27T15:19:15.450Z,82.84
2022-08-27T15:21:44.674Z,82.79
2022-08-27T15:24:15.673Z,82.84
2022-08-27T15:26:42.185Z,82.93
2022-08-27T15:29:08.607Z,83.20
2022-08-27T15:31:35.517Z,83.02
2022-08-27T15:34:02.311Z,83.15
2022-08-27T15:36:28.735Z,83.01
2022-08-27T15:38:56.343Z,82.89
2022-08-27T15:41:25.214Z,82.78
2022-08-27T15:43:55.119Z,82.84
2022-08-27T15:46:22.285Z,82.79
2022-08-27T15:48:48.910Z,82.77
2022-08-27T15:51:26.346Z,82.97
2022-08-27T15:53:52.807Z,82.92
2022-08-27T15:56:20.159Z,83.09
2022-08-27T15:58:46.754Z,83.12
2022-08-27T16:01:14.809Z,83.18
2022-08-27T16:03:42.137Z,83.28
2022-08-27T16:06:08.946Z,83.15
2022-08-27T16:08:36.799Z,83.25
2022-08-27T16:11:08.404Z,83.46
2022-08-27T16:13:34.835Z,83.50
2022-08-27T16:16:02.075Z,83.19
2022-08-27T16:18:30.235Z,83.15
2022-08-27T16:20:58.330Z,83.14
2022-08-27T16:23:26.374Z,83.14
2022-08-27T16:25:53.722Z,82.85
2022-08-27T16:28:20.243Z,82.86
2022-08-27T16:30:47.165Z,82.92
2022-08-27T16:33:14.368Z,82.97
2022-08-27T16:35:42.472Z,83.10
2022-08-27T16:38:09.224Z,82.96
2022-08-27T16:40:40.720Z,82.95
2022-08-27T16:43:10.091Z,82.78
2022-08-27T16:45:36.603Z,82.71
2022-08-27T16:48:21.532Z,82.76
2022-08-27T16:50:47.926Z,82.79
2022-08-27T16:53:15.309Z,82.97
2022-08-27T16:55:43.012Z,83.00
2022-08-27T16:58:14.339Z,82.80
2022-08-27T17:00:40.851Z,82.64
2022-08-27T17:03:07.668Z,82.68
2022-08-27T17:05:35.043Z,82.76
2022-08-27T17:08:02.367Z,82.90
2022-08-27T17:10:32.595Z,82.79
2022-08-27T17:12:59.401Z,82.98
2022-08-27T17:15:25.896Z,83.00
2022-08-27T17:17:52.370Z,82.81
2022-08-27T17:20:18.889Z,82.66
2022-08-27T17:22:45.444Z,82.66
2022-08-27T17:25:11.903Z,82.47
2022-08-27T17:27:38.307Z,82.50
2022-08-27T17:30:05.926Z,82.41
2022-08-27T17:32:35.110Z,82.37
2022-08-27T17:35:05.874Z,82.47
2022-08-27T17:37:33.077Z,82.46
2022-08-27T17:40:00.057Z,82.30
2022-08-27T17:42:26.642Z,82.53
2022-08-27T17:44:53.052Z,82.47
2022-08-27T17:47:20.753Z,82.42
2022-08-27T17:49:47.268Z,82.45
2022-08-27T17:52:15.152Z,82.85
2022-08-27T17:54:46.053Z,82.79
2022-08-27T17:57:16.676Z,82.64
2022-08-27T17:59:43.456Z,82.51
2022-08-27T18:02:12.095Z,82.58
2022-08-27T18:04:38.574Z,82.59
2022-08-27T18:07:05.058Z,82.49
2022-08-27T18:09:31.460Z,82.34
2022-08-27T18:11:57.886Z,82.43
2022-08-27T18:14:24.285Z,82.42
2022-08-27T18:16:50.827Z,82.46
2022-08-27T18:19:17.304Z,82.56
2022-08-27T18:21:46.365Z,82.48
2022-08-27T18:24:13.604Z,82.56
2022-08-27T18:26:40.103Z,82.66
2022-08-27T18:29:06.559Z,82.57
2022-08-27T18:31:33.081Z,82.47
2022-08-27T18:34:00.111Z,82.57
2022-08-27T18:36:27.399Z,82.51
2022-08-27T18:38:53.854Z,82.56
2022-08-27T18:41:20.460Z,82.62
2022-08-27T18:43:47.531Z,82.50
2022-08-27T18:46:14.201Z,82.56
2022-08-27T18:48:41.051Z,82.51
2022-08-27T18:51:09.109Z,82.41
2022-08-27T18:53:36.783Z,82.53
2022-08-27T18:56:04.467Z,82.62
2022-08-27T18:58:30.878Z,82.48
2022-08-27T19:00:58.962Z,82.52
2022-08-27T19:03:31.301Z,82.53
2022-08-27T19:05:58.040Z,82.47
2022-08-27T19:08:28.047Z,82.59
2022-08-27T19:10:55.661Z,82.49
2022-08-27T19:13:22.429Z,82.46
2022-08-27T19:15:54.034Z,82.35
2022-08-27T19:18:21.701Z,82.43
2022-08-27T19:20:48.117Z,82.38
2022-08-27T19:23:14.730Z,82.46
2022-08-27T19:25:50.471Z,82.59
2022-08-27T19:28:22.857Z,82.46
2022-08-27T19:30:49.338Z,82.57
2022-08-27T19:33:15.740Z,82.37
2022-08-27T19:35:42.636Z,82.41
2022-08-27T19:38:11.711Z,82.43
2022-08-27T19:40:38.313Z,82.42
2022-08-27T19:43:05.107Z,82.31
2022-08-27T19:45:31.742Z,82.31
2022-08-27T19:47:58.980Z,82.26
2022-08-27T19:50:25.433Z,82.23
2022-08-27T19:52:52.397Z,82.22
2022-08-27T19:55:19.227Z,82.38
2022-08-27T19:57:45.631Z,82.33
2022-08-27T20:00:14.023Z,82.23
2022-08-27T20:02:40.423Z,82.28
2022-08-27T20:05:18.036Z,82.29
2022-08-27T20:07:45.650Z,82.26
2022-08-27T20:10:12.119Z,82.44
2022-08-27T20:12:38.525Z,82.25
2022-08-27T20:15:06.245Z,82.15
2022-08-27T20:17:32.914Z,82.41
2022-08-27T20:19:59.926Z,82.34
2022-08-27T20:22:26.951Z,82.27
2022-08-27T20:24:53.304Z,82.32
2022-08-27T20:27:19.816Z,82.20
2022-08-27T20:29:46.246Z,82.23
2022-08-27T20:32:13.244Z,82.15
2022-08-27T20:34:39.988Z,82.00
2022-08-27T20:37:06.361Z,82.06
2022-08-27T20:39:32.811Z,82.00
2022-08-27T20:41:59.584Z,81.94
2022-08-27T20:44:26.030Z,81.84
2022-08-27T20:46:55.004Z,81.84
2022-08-27T20:49:21.857Z,81.72
2022-08-27T20:52:02.329Z,81.82
2022-08-27T20:54:31.295Z,81.76
2022-08-27T20:56:57.904Z,81.84
2022-08-27T20:59:42.756Z,81.62
2022-08-27T21:02:10.606Z,81.56
2022-08-27T21:04:43.484Z,81.67
2022-08-27T21:07:09.886Z,81.64
2022-08-27T21:09:36.319Z,81.63
2022-08-27T21:12:22.719Z,81.68
2022-08-27T21:14:49.767Z,81.62
2022-08-27T21:17:21.169Z,81.61
2022-08-27T21:19:47.555Z,81.53
2022-08-27T21:22:13.895Z,81.60
2022-08-27T21:24:40.296Z,81.59
2022-08-27T21:27:06.680Z,81.63
2022-08-27T21:29:33.831Z,81.50
2022-08-27T21:32:00.238Z,81.48
2022-08-27T21:34:28.206Z,81.41
2022-08-27T21:36:54.632Z,81.53
2022-08-27T21:39:21.049Z,81.40
2022-08-27T21:41:47.491Z,81.49
2022-08-27T21:44:14.475Z,81.43
2022-08-27T21:46:41.337Z,81.38
2022-08-27T21:49:08.085Z,81.55
2022-08-27T21:51:34.498Z,81.42
2022-08-27T21:54:00.917Z,81.55
2022-08-27T21:56:27.418Z,81.34
2022-08-27T21:58:53.884Z,81.46
2022-08-27T22:01:20.295Z,81.44
2022-08-27T22:03:50.790Z,81.40
2022-08-27T22:06:17.930Z,81.30
2022-08-27T22:08:44.421Z,81.53
2022-08-27T22:11:11.664Z,81.48
2022-08-27T22:13:38.216Z,81.43
2022-08-27T22:16:04.975Z,81.56
2022-08-27T22:18:31.507Z,81.60
2022-08-27T22:20:58.932Z,81.48
2022-08-27T22:23:25.318Z,81.56
2022-08-27T22:25:51.900Z,81.51
2022-08-27T22:28:18.435Z,81.47
2022-08-27T22:30:45.414Z,81.53
2022-08-27T22:33:12.515Z,81.58
2022-08-27T22:35:39.072Z,81.54
2022-08-27T22:38:05.596Z,81.52
2022-08-27T22:40:33.685Z,81.48
2022-08-27T22:43:00.423Z,81.59
2022-08-27T22:45:27.231Z,81.46
2022-08-27T22:47:53.839Z,81.43
2022-08-27T22:50:20.714Z,81.44
2022-08-27T22:52:47.863Z,81.46
2022-08-27T22:55:15.467Z,81.43
2022-08-27T22:57:41.939Z,81.57
2022-08-27T23:00:12.854Z,81.47
2022-08-27T23:02:39.705Z,81.45
2022-08-27T23:05:06.987Z,81.51
2022-08-27T23:07:33.663Z,81.54
2022-08-27T23:10:00.132Z,81.43
2022-08-27T23:12:26.598Z,81.58
2022-08-27T23:14:53.043Z,81.47
2022-08-27T23:17:19.825Z,81.60
2022-08-27T23:19:46.318Z,81.34
2022-08-27T23:22:12.824Z,81.61
2022-08-27T23:24:59.271Z,81.60
2022-08-27T23:27:31.572Z,81.66
2022-08-27T23:29:58.579Z,81.66
2022-08-27T23:32:25.139Z,81.53
2022-08-27T23:34:51.607Z,81.59
2022-08-27T23:37:18.452Z,81.55
2022-08-27T23:39:45.071Z,81.56
2022-08-27T23:42:12.122Z,81.71
2022-08-27T23:44:39.478Z,81.53
2022-08-27T23:47:05.876Z,81.65
2022-08-27T23:49:32.360Z,81.63
2022-08-27T23:51:58.865Z,81.62
2022-08-27T23:54:25.341Z,81.65
2022-08-27T23:56:51.742Z,81.58
2022-08-27T23:59:18.119Z,81.75
